Weather at Flying Carpet Airport

Public forecast

Using degrees Fahrenheit for public forecast. Weather courtesy of forecast.io.

Closest aviation weather report (METAR) to Flying Carpet Airport

Closest report is Olympia Regional Airport, 4.2 nm (7.8 km) W.

2024/04/12 16:54 (retrieved 1 hour ago)

KOLM 121654Z AUTO 01008KT 10SM SCT015 BKN021 OVC027 11/07 A2986 RMK AO2 SLP114 T01060072

Closest aviation forecast (TAF) to Flying Carpet Airport

Closest forecast is Olympia Regional Airport, 4.2 nm (7.8 km) W.

2024/04/12 15:09 Ammendment (retrieved 3 hours ago)

TAF AMD KOLM 121506Z 1215/1312 02004KT P6SM BKN015 OVC020 FM121800 02006KT P6SM BKN040 FM122200 06007KT P6SM SCT050 SCT200 FM130600 VRB03KT P6SM FEW005 SCT200